Time;durP1;ratioP1;P1;durP2;ratioP2;P2;SDS_P1;SDS_P2;PMS_P1;PMS_P2;Temp;Humidity;BMP_temperature;BMP_pressure;BME280_temperature;BME280_humidity;BME280_pressure;Samples;Min_cycle;Max_cycle;Signal;HPM_P1;HPM_P2
2020/12/12 00:00:53;;;;;;;;;;;26.90;42.00;;;;;;5031335;28;20446;-52
2020/12/12 00:03:18;;;;;;;;;;;26.90;41.90;;;;;;5029755;28;19917;-50
2020/12/12 00:05:44;;;;;;;;;;;27.10;41.90;;;;;;5030097;28;19924;-51
2020/12/12 00:08:09;;;;;;;;;;;27.10;41.80;;;;;;5029707;28;19928;-50
2020/12/12 00:10:34;;;;;;;;;;;27.10;41.70;;;;;;5029573;28;19928;-48
2020/12/12 00:13:00;;;;;;;;;;;27.10;41.60;;;;;;5029265;28;19967;-49
2020/12/12 00:15:25;;;;;;;;;;;27.20;41.80;;;;;;5030304;28;19924;-55
2020/12/12 00:17:51;;;;;;;;;;;27.10;41.80;;;;;;5029561;28;20275;-57
2020/12/12 00:20:16;;;;;;;;;;;27.10;41.80;;;;;;5028595;28;19917;-50
2020/12/12 00:22:42;;;;;;;;;;;27.10;41.80;;;;;;5029476;28;19952;-52
2020/12/12 00:25:09;;;;;;;;;;;27.10;41.70;;;;;;5029259;28;19921;-51
2020/12/12 00:27:34;;;;;;;;;;;27.10;41.70;;;;;;5029368;28;20299;-55
2020/12/12 00:30:00;;;;;;;;;;;27.10;41.70;;;;;;5029688;28;19920;-52
2020/12/12 00:32:25;;;;;;;;;;;27.20;41.70;;;;;;5028893;28;20271;-52
2020/12/12 00:34:51;;;;;;;;;;;27.10;41.70;;;;;;5030033;28;19967;-52
2020/12/12 00:37:18;;;;;;;;;;;27.10;41.70;;;;;;5029130;28;19917;-53
2020/12/12 00:39:46;;;;;;;;;;;27.20;41.70;;;;;;5029256;28;19920;-55
2020/12/12 00:42:12;;;;;;;;;;;27.20;41.70;;;;;;5029023;28;20012;-48
2020/12/12 00:44:37;;;;;;;;;;;27.10;41.60;;;;;;5029398;28;20012;-53
2020/12/12 00:47:04;;;;;;;;;;;27.10;41.70;;;;;;5029112;28;19996;-48
2020/12/12 00:49:29;;;;;;;;;;;27.10;41.70;;;;;;5028658;28;20366;-50
2020/12/12 00:51:55;;;;;;;;;;;27.10;41.70;;;;;;5028423;28;19927;-57
2020/12/12 00:54:20;;;;;;;;;;;27.10;41.80;;;;;;5029348;28;19952;-50
2020/12/12 00:56:46;;;;;;;;;;;27.10;41.80;;;;;;5028561;28;20288;-57
2020/12/12 00:59:11;;;;;;;;;;;27.10;41.80;;;;;;5029159;28;19952;-52
2020/12/12 01:01:37;;;;;;;;;;;27.00;41.90;;;;;;5030905;28;20031;-50
2020/12/12 01:04:02;;;;;;;;;;;26.90;42.10;;;;;;5029150;28;19928;-50
2020/12/12 01:06:27;;;;;;;;;;;26.90;42.20;;;;;;5028915;28;20337;-52
2020/12/12 01:08:53;;;;;;;;;;;26.90;42.30;;;;;;5028840;28;19913;-51
2020/12/12 01:11:19;;;;;;;;;;;26.90;42.00;;;;;;5028353;28;19936;-50
2020/12/12 01:13:45;;;;;;;;;;;27.00;42.00;;;;;;5028921;28;19929;-49
2020/12/12 01:16:11;;;;;;;;;;;27.00;41.90;;;;;;5028335;28;20011;-53
2020/12/12 01:18:36;;;;;;;;;;;27.00;41.90;;;;;;5028405;28;19921;-50
2020/12/12 01:21:02;;;;;;;;;;;26.90;42.00;;;;;;5028349;28;20298;-51
2020/12/12 01:23:27;;;;;;;;;;;26.90;42.00;;;;;;5028868;28;20381;-53
2020/12/12 01:25:53;;;;;;;;;;;27.00;42.00;;;;;;5028650;28;19913;-55
2020/12/12 01:28:20;;;;;;;;;;;27.10;41.90;;;;;;5028253;28;19920;-52
2020/12/12 01:30:47;;;;;;;;;;;27.10;41.90;;;;;;5028062;28;19944;-53
2020/12/12 01:33:13;;;;;;;;;;;27.10;41.80;;;;;;5028144;28;19921;-53
2020/12/12 01:35:38;;;;;;;;;;;27.10;41.80;;;;;;5028102;28;19955;-56
2020/12/12 01:38:04;;;;;;;;;;;27.10;42.10;;;;;;5028139;28;20379;-51
2020/12/12 01:40:29;;;;;;;;;;;27.00;41.80;;;;;;5027934;28;19921;-51
2020/12/12 01:42:55;;;;;;;;;;;27.00;42.10;;;;;;5028060;28;19920;-56
2020/12/12 01:45:20;;;;;;;;;;;27.00;42.20;;;;;;5028010;28;20421;-51
2020/12/12 01:47:46;;;;;;;;;;;27.00;42.00;;;;;;5027911;28;19975;-53
2020/12/12 01:50:11;;;;;;;;;;;26.90;42.20;;;;;;5028523;28;19921;-57
2020/12/12 01:52:37;;;;;;;;;;;27.00;42.00;;;;;;5027394;28;20395;-56
2020/12/12 01:55:02;;;;;;;;;;;27.00;42.00;;;;;;5028565;28;19925;-52
2020/12/12 01:57:27;;;;;;;;;;;27.00;41.90;;;;;;5027925;28;19917;-52
2020/12/12 01:59:53;;;;;;;;;;;27.10;41.90;;;;;;5028792;28;20367;-53
2020/12/12 02:02:19;;;;;;;;;;;27.10;41.80;;;;;;5028583;28;19921;-51
2020/12/12 02:04:48;;;;;;;;;;;27.10;41.70;;;;;;5028888;28;20283;-54
2020/12/12 02:07:14;;;;;;;;;;;27.10;41.60;;;;;;5027889;28;19921;-52
2020/12/12 02:09:40;;;;;;;;;;;27.20;41.70;;;;;;5026266;28;19928;-51
2020/12/12 02:12:06;;;;;;;;;;;27.10;41.60;;;;;;5027399;28;19929;-52
2020/12/12 02:14:32;;;;;;;;;;;27.20;41.60;;;;;;5027543;28;19931;-57
2020/12/12 02:16:58;;;;;;;;;;;27.00;41.80;;;;;;5026292;28;20001;-48
2020/12/12 02:19:23;;;;;;;;;;;27.00;41.80;;;;;;5028903;28;19922;-51
2020/12/12 02:21:52;;;;;;;;;;;27.00;42.10;;;;;;5028235;28;19920;-49
2020/12/12 02:24:18;;;;;;;;;;;26.90;42.10;;;;;;5028402;28;19918;-51
2020/12/12 02:26:43;;;;;;;;;;;27.00;42.20;;;;;;5029040;28;19920;-50
2020/12/12 02:29:10;;;;;;;;;;;27.10;42.10;;;;;;5028278;28;19921;-55
2020/12/12 02:31:36;;;;;;;;;;;27.10;42.60;;;;;;5028108;28;20394;-51
2020/12/12 02:34:02;;;;;;;;;;;27.10;41.90;;;;;;5027930;28;19929;-52
2020/12/12 02:36:27;;;;;;;;;;;27.10;41.90;;;;;;5027666;28;19970;-52
2020/12/12 02:38:52;;;;;;;;;;;27.10;41.80;;;;;;5027710;28;19936;-51
2020/12/12 02:41:18;;;;;;;;;;;27.10;42.00;;;;;;5027458;28;20458;-47
2020/12/12 02:43:46;;;;;;;;;;;27.10;41.90;;;;;;5027959;28;19920;-49
2020/12/12 02:46:12;;;;;;;;;;;27.10;41.90;;;;;;5027486;28;19924;-55
2020/12/12 02:48:37;;;;;;;;;;;27.10;41.90;;;;;;5030094;28;19917;-52
2020/12/12 02:51:02;;;;;;;;;;;27.10;41.90;;;;;;5031111;28;20450;-53
2020/12/12 02:53:28;;;;;;;;;;;27.10;41.80;;;;;;5031090;28;19921;-47
2020/12/12 02:55:53;;;;;;;;;;;27.10;41.80;;;;;;5031357;28;19913;-51
2020/12/12 02:58:19;;;;;;;;;;;27.10;41.80;;;;;;5031323;28;20286;-50
2020/12/12 03:00:44;;;;;;;;;;;27.10;41.70;;;;;;5031997;28;20425;-49
2020/12/12 03:03:10;;;;;;;;;;;27.10;41.80;;;;;;5030927;28;19921;-50
2020/12/12 03:05:35;;;;;;;;;;;27.00;41.80;;;;;;5031249;28;19937;-50
2020/12/12 03:08:01;;;;;;;;;;;27.00;42.00;;;;;;5031270;28;19967;-48
2020/12/12 03:10:26;;;;;;;;;;;27.10;41.80;;;;;;5030403;28;19920;-56
2020/12/12 03:12:52;;;;;;;;;;;27.20;41.70;;;;;;5030453;28;19941;-56
2020/12/12 03:15:17;;;;;;;;;;;27.20;41.50;;;;;;5030807;28;19921;-50
2020/12/12 03:17:43;;;;;;;;;;;27.30;41.30;;;;;;5030411;28;19956;-56
2020/12/12 03:20:08;;;;;;;;;;;27.30;41.30;;;;;;5030945;28;20043;-53
2020/12/12 03:22:34;;;;;;;;;;;27.30;41.20;;;;;;5031156;28;20375;-49
2020/12/12 03:24:59;;;;;;;;;;;27.30;41.10;;;;;;5030519;28;19921;-52
2020/12/12 03:27:25;;;;;;;;;;;27.40;41.20;;;;;;5030671;28;19956;-55
2020/12/12 03:29:50;;;;;;;;;;;27.30;41.20;;;;;;5031225;28;19924;-55
2020/12/12 03:32:15;;;;;;;;;;;27.30;41.10;;;;;;5030682;28;20085;-54
2020/12/12 03:34:44;;;;;;;;;;;27.30;41.10;;;;;;5030338;28;20375;-54
2020/12/12 03:37:10;;;;;;;;;;;27.40;41.10;;;;;;5030769;28;20286;-52
2020/12/12 03:39:35;;;;;;;;;;;27.30;41.00;;;;;;5030097;28;19919;-56
2020/12/12 03:42:00;;;;;;;;;;;27.30;41.20;;;;;;5030141;28;19921;-53
2020/12/12 03:44:26;;;;;;;;;;;27.30;41.10;;;;;;5030140;28;19921;-54
2020/12/12 03:46:51;;;;;;;;;;;27.30;41.10;;;;;;5030013;28;19923;-53
2020/12/12 03:49:17;;;;;;;;;;;27.40;41.10;;;;;;5029910;28;20004;-48
2020/12/12 03:51:42;;;;;;;;;;;27.40;41.10;;;;;;5030329;28;20375;-60
2020/12/12 03:54:08;;;;;;;;;;;27.40;41.10;;;;;;5030750;28;19929;-53
2020/12/12 03:56:33;;;;;;;;;;;27.40;41.00;;;;;;5029765;28;19921;-58
2020/12/12 03:58:59;;;;;;;;;;;27.40;41.10;;;;;;5029516;28;19913;-51
2020/12/12 04:01:24;;;;;;;;;;;27.40;41.10;;;;;;5029967;28;20339;-50
2020/12/12 04:03:50;;;;;;;;;;;27.30;41.10;;;;;;5029820;28;19917;-50
2020/12/12 04:06:15;;;;;;;;;;;27.30;41.00;;;;;;5029888;28;19913;-50
2020/12/12 04:08:41;;;;;;;;;;;27.30;41.00;;;;;;5029858;28;19921;-51
2020/12/12 04:11:06;;;;;;;;;;;27.40;41.10;;;;;;5029337;28;19929;-55
2020/12/12 04:13:31;;;;;;;;;;;27.40;41.00;;;;;;5029518;28;19921;-54
2020/12/12 04:15:57;;;;;;;;;;;27.30;40.90;;;;;;5029472;28;19917;-50
2020/12/12 04:18:23;;;;;;;;;;;27.30;41.00;;;;;;5029558;28;20324;-49
2020/12/12 04:20:48;;;;;;;;;;;27.30;40.90;;;;;;5029798;28;19960;-51
2020/12/12 04:23:14;;;;;;;;;;;27.30;40.80;;;;;;5029617;28;19917;-50
2020/12/12 04:25:40;;;;;;;;;;;27.30;41.00;;;;;;5029533;28;20774;-52
2020/12/12 04:28:05;;;;;;;;;;;27.30;41.00;;;;;;5030478;28;20377;-51
2020/12/12 04:30:30;;;;;;;;;;;27.30;41.10;;;;;;5029575;28;19928;-52
2020/12/12 04:32:56;;;;;;;;;;;27.30;40.90;;;;;;5029795;28;20354;-50
2020/12/12 04:35:21;;;;;;;;;;;27.30;40.90;;;;;;5029744;28;19920;-51
2020/12/12 04:37:47;;;;;;;;;;;27.30;40.90;;;;;;5029098;28;19970;-51
2020/12/12 04:40:13;;;;;;;;;;;27.30;41.00;;;;;;5029015;28;19928;-53
2020/12/12 04:42:42;;;;;;;;;;;27.30;40.90;;;;;;5029018;28;19936;-52
2020/12/12 04:45:08;;;;;;;;;;;27.30;40.90;;;;;;5029329;28;20020;-54
2020/12/12 04:47:33;;;;;;;;;;;27.30;41.00;;;;;;5029169;28;19917;-52
2020/12/12 04:49:59;;;;;;;;;;;27.20;40.90;;;;;;5028359;28;19924;-52
2020/12/12 04:52:25;;;;;;;;;;;27.30;41.00;;;;;;5028752;28;19951;-51
2020/12/12 04:54:50;;;;;;;;;;;27.30;41.00;;;;;;5028016;28;20389;-48
2020/12/12 04:57:16;;;;;;;;;;;27.20;40.90;;;;;;5028375;28;19924;-58
2020/12/12 04:59:41;;;;;;;;;;;27.20;40.70;;;;;;5029038;28;19920;-49
2020/12/12 05:02:12;;;;;;;;;;;27.20;41.10;;;;;;5029257;28;20330;-49
2020/12/12 05:04:38;;;;;;;;;;;27.20;40.90;;;;;;5028834;28;19924;-49
2020/12/12 05:07:03;;;;;;;;;;;27.20;40.80;;;;;;5028526;28;19921;-49
2020/12/12 05:09:29;;;;;;;;;;;27.20;40.70;;;;;;5028635;28;20409;-49
2020/12/12 05:11:54;;;;;;;;;;;27.10;40.70;;;;;;5027436;28;20046;-49
2020/12/12 05:14:20;;;;;;;;;;;27.10;40.70;;;;;;5028535;28;19925;-49
2020/12/12 05:16:45;;;;;;;;;;;27.10;40.70;;;;;;5028983;28;19921;-49
2020/12/12 05:19:12;;;;;;;;;;;27.10;40.70;;;;;;5028194;28;20290;-50
2020/12/12 05:21:47;;;;;;;;;;;27.00;40.60;;;;;;5028224;28;19921;-50
2020/12/12 05:24:13;;;;;;;;;;;27.10;40.60;;;;;;5028397;28;20295;-49
2020/12/12 05:26:38;;;;;;;;;;;27.00;40.60;;;;;;5028525;28;20682;-49
2020/12/12 05:29:04;;;;;;;;;;;27.00;40.60;;;;;;5029663;28;19995;-49
2020/12/12 05:31:30;;;;;;;;;;;27.00;40.50;;;;;;5028159;28;19921;-48
2020/12/12 05:33:55;;;;;;;;;;;27.00;40.50;;;;;;5028668;28;20412;-49
2020/12/12 05:36:26;;;;;;;;;;;27.00;40.60;;;;;;5028277;28;19928;-49
2020/12/12 05:38:56;;;;;;;;;;;27.00;40.60;;;;;;5027650;28;20260;-49
2020/12/12 05:41:23;;;;;;;;;;;26.90;40.50;;;;;;5028097;28;19917;-49
2020/12/12 05:43:49;;;;;;;;;;;27.00;40.50;;;;;;5027481;28;19921;-49
2020/12/12 05:46:14;;;;;;;;;;;26.90;40.60;;;;;;5026875;28;20283;-48
2020/12/12 05:48:40;;;;;;;;;;;26.90;40.50;;;;;;5027969;28;19928;-49
2020/12/12 05:51:05;;;;;;;;;;;26.90;40.60;;;;;;5028487;28;19975;-50
2020/12/12 05:53:31;;;;;;;;;;;26.90;40.50;;;;;;5026923;28;20275;-49
2020/12/12 05:55:56;;;;;;;;;;;26.90;40.50;;;;;;5027605;28;20016;-49
2020/12/12 05:58:22;;;;;;;;;;;26.90;40.50;;;;;;5027806;28;20008;-49
2020/12/12 06:00:48;;;;;;;;;;;26.90;40.60;;;;;;5027926;28;19925;-48
2020/12/12 06:03:21;;;;;;;;;;;26.90;40.50;;;;;;5026154;28;19925;-49
2020/12/12 06:05:48;;;;;;;;;;;26.90;40.50;;;;;;5027633;28;19959;-48
2020/12/12 06:08:13;;;;;;;;;;;26.90;40.50;;;;;;5028433;28;20375;-49
2020/12/12 06:10:39;;;;;;;;;;;26.80;40.50;;;;;;5026504;28;19959;-50
2020/12/12 06:13:04;;;;;;;;;;;26.90;40.50;;;;;;5026400;28;20294;-49
2020/12/12 06:15:34;;;;;;;;;;;26.80;40.40;;;;;;5027810;28;21109;-50
2020/12/12 06:18:20;;;;;;;;;;;26.80;40.50;;;;;;5027634;28;19917;-49
2020/12/12 06:20:46;;;;;;;;;;;26.80;40.50;;;;;;5027243;28;19929;-49
2020/12/12 06:23:11;;;;;;;;;;;26.80;40.50;;;;;;5031006;28;19943;-50
2020/12/12 06:25:37;;;;;;;;;;;26.80;40.50;;;;;;5031748;28;19928;-50
2020/12/12 06:28:05;;;;;;;;;;;26.70;40.50;;;;;;5032559;28;20371;-50
2020/12/12 06:30:31;;;;;;;;;;;26.80;40.50;;;;;;5030532;28;19921;-49
2020/12/12 06:33:00;;;;;;;;;;;26.70;40.50;;;;;;5031277;28;19935;-49
2020/12/12 06:35:32;;;;;;;;;;;26.70;40.60;;;;;;5032453;28;20267;-50
2020/12/12 06:37:57;;;;;;;;;;;26.70;40.50;;;;;;5031229;28;19935;-49
2020/12/12 06:40:24;;;;;;;;;;;26.80;40.40;;;;;;5029771;28;19921;-49
2020/12/12 06:42:49;;;;;;;;;;;26.70;40.40;;;;;;5029704;28;19967;-50
2020/12/12 06:45:20;;;;;;;;;;;26.70;40.60;;;;;;5031604;28;19921;-50
2020/12/12 06:47:52;;;;;;;;;;;26.70;40.60;;;;;;5032026;28;19920;-49
2020/12/12 06:50:21;;;;;;;;;;;26.70;40.40;;;;;;5030839;28;19916;-49
2020/12/12 06:52:46;;;;;;;;;;;26.70;40.40;;;;;;5030750;28;20579;-49
2020/12/12 06:55:12;;;;;;;;;;;26.70;40.40;;;;;;5031204;28;19921;-50
2020/12/12 07:00:04;;;;;;;;;;;26.70;40.30;;;;;;5031242;28;19979;-49
2020/12/12 07:02:29;;;;;;;;;;;26.70;40.30;;;;;;5031223;28;20278;-48
2020/12/12 07:04:55;;;;;;;;;;;26.70;40.30;;;;;;5031344;28;19913;-49
2020/12/12 07:07:20;;;;;;;;;;;26.70;40.30;;;;;;5030912;28;20359;-49
2020/12/12 07:09:46;;;;;;;;;;;26.70;40.20;;;;;;5030838;28;19953;-49
2020/12/12 07:12:11;;;;;;;;;;;26.80;40.20;;;;;;5030473;28;19925;-52
2020/12/12 07:14:37;;;;;;;;;;;26.80;40.20;;;;;;5030406;28;19925;-49
2020/12/12 07:17:03;;;;;;;;;;;26.70;40.20;;;;;;5030733;28;19913;-49
2020/12/12 07:19:32;;;;;;;;;;;26.70;40.20;;;;;;5030682;28;20393;-49
2020/12/12 07:21:58;;;;;;;;;;;26.70;40.30;;;;;;5030543;28;19917;-49
2020/12/12 07:24:24;;;;;;;;;;;26.70;40.20;;;;;;5030811;28;19917;-49
2020/12/12 07:26:50;;;;;;;;;;;26.70;40.20;;;;;;5030700;28;20445;-48
2020/12/12 07:29:15;;;;;;;;;;;26.70;40.20;;;;;;5031315;28;19913;-50
2020/12/12 07:31:41;;;;;;;;;;;26.80;40.10;;;;;;5030402;28;19971;-49
2020/12/12 07:34:07;;;;;;;;;;;26.70;40.10;;;;;;5029831;28;20003;-49
2020/12/12 07:36:32;;;;;;;;;;;26.70;40.10;;;;;;5030453;28;19962;-49
2020/12/12 07:38:58;;;;;;;;;;;26.70;40.00;;;;;;5030474;28;20017;-49
2020/12/12 07:41:23;;;;;;;;;;;26.80;40.10;;;;;;5028550;28;19951;-49
2020/12/12 07:43:52;;;;;;;;;;;26.80;40.60;;;;;;5028888;28;19913;-49
2020/12/12 07:46:17;;;;;;;;;;;26.70;40.00;;;;;;5029812;28;20636;-51
2020/12/12 07:48:43;;;;;;;;;;;26.70;40.00;;;;;;5030647;28;19924;-50
2020/12/12 07:51:15;;;;;;;;;;;26.70;40.10;;;;;;5029884;28;19940;-49
2020/12/12 07:53:40;;;;;;;;;;;26.70;40.10;;;;;;5029982;28;20310;-51
2020/12/12 07:56:07;;;;;;;;;;;26.70;40.10;;;;;;5029934;28;20378;-50
2020/12/12 07:58:35;;;;;;;;;;;26.70;40.00;;;;;;5030805;28;21538;-49
2020/12/12 08:01:04;;;;;;;;;;;26.70;40.00;;;;;;5029683;28;19928;-49
2020/12/12 08:03:29;;;;;;;;;;;26.70;40.00;;;;;;5029592;28;20385;-50
2020/12/12 08:06:08;;;;;;;;;;;26.80;40.00;;;;;;5029389;28;19921;-50
2020/12/12 08:08:33;;;;;;;;;;;26.70;39.90;;;;;;5029712;28;19917;-50
2020/12/12 08:11:02;;;;;;;;;;;26.70;40.00;;;;;;5029638;28;20058;-51
2020/12/12 08:13:28;;;;;;;;;;;26.70;40.00;;;;;;5029872;28;20371;-49
2020/12/12 08:16:04;;;;;;;;;;;26.70;40.00;;;;;;5029486;28;19921;-50
2020/12/12 08:18:30;;;;;;;;;;;26.70;40.00;;;;;;5029772;28;19921;-48
2020/12/12 08:21:08;;;;;;;;;;;26.70;40.00;;;;;;5029063;28;19958;-49
2020/12/12 08:23:33;;;;;;;;;;;26.70;40.00;;;;;;5029561;28;19921;-50
2020/12/12 08:25:59;;;;;;;;;;;26.80;39.90;;;;;;5027916;28;19917;-50
2020/12/12 08:28:26;;;;;;;;;;;26.70;39.90;;;;;;5030522;28;19921;-49
2020/12/12 08:30:51;;;;;;;;;;;26.70;40.10;;;;;;5030100;28;20393;-49
2020/12/12 08:33:17;;;;;;;;;;;26.70;40.00;;;;;;5028758;28;19972;-49
2020/12/12 08:35:42;;;;;;;;;;;26.70;40.00;;;;;;5029537;28;19938;-49
2020/12/12 08:38:11;;;;;;;;;;;26.70;39.90;;;;;;5028885;28;19975;-48
2020/12/12 08:40:42;;;;;;;;;;;26.70;39.90;;;;;;5029458;28;19914;-48
2020/12/12 08:43:08;;;;;;;;;;;26.80;39.90;;;;;;5028818;28;19928;-48
2020/12/12 08:45:36;;;;;;;;;;;26.70;39.80;;;;;;5029040;28;19921;-49
2020/12/12 08:48:01;;;;;;;;;;;26.70;39.90;;;;;;5028495;28;19924;-49
2020/12/12 08:50:31;;;;;;;;;;;26.70;39.90;;;;;;5028709;28;19913;-49
2020/12/12 08:52:57;;;;;;;;;;;26.70;39.90;;;;;;5029006;28;20055;-48
2020/12/12 08:55:25;;;;;;;;;;;26.70;39.80;;;;;;5029470;28;19920;-49
2020/12/12 08:57:57;;;;;;;;;;;26.70;39.80;;;;;;5028614;28;19960;-49
2020/12/12 09:00:25;;;;;;;;;;;26.70;39.80;;;;;;5029117;28;19917;-49
2020/12/12 09:02:58;;;;;;;;;;;26.70;39.70;;;;;;5028772;28;19947;-49
2020/12/12 09:05:24;;;;;;;;;;;26.70;39.70;;;;;;5029279;28;19947;-49
2020/12/12 09:07:49;;;;;;;;;;;26.70;39.70;;;;;;5027958;28;19963;-50
2020/12/12 09:10:15;;;;;;;;;;;26.70;39.80;;;;;;5028704;28;19924;-49
2020/12/12 09:12:43;;;;;;;;;;;26.70;39.80;;;;;;5028251;28;20332;-50
2020/12/12 09:15:10;;;;;;;;;;;26.70;39.80;;;;;;5027754;28;20267;-49
2020/12/12 09:17:36;;;;;;;;;;;26.70;39.80;;;;;;5028584;28;19967;-48
2020/12/12 09:20:02;;;;;;;;;;;26.70;39.70;;;;;;5028291;28;19951;-49
2020/12/12 09:22:27;;;;;;;;;;;26.70;39.80;;;;;;5029087;28;19921;-49
2020/12/12 09:24:53;;;;;;;;;;;26.70;39.70;;;;;;5028894;28;20012;-49
2020/12/12 09:27:20;;;;;;;;;;;26.70;39.70;;;;;;5028377;28;20268;-48
2020/12/12 09:29:45;;;;;;;;;;;26.70;39.70;;;;;;5028288;28;20324;-49
2020/12/12 09:32:11;;;;;;;;;;;26.70;39.70;;;;;;5028405;28;19952;-49
2020/12/12 09:34:37;;;;;;;;;;;26.70;39.70;;;;;;5028800;28;19925;-48
2020/12/12 09:37:02;;;;;;;;;;;26.70;39.70;;;;;;5028355;28;19921;-48
2020/12/12 09:39:28;;;;;;;;;;;26.70;39.70;;;;;;5028008;28;20318;-49
2020/12/12 09:41:59;;;;;;;;;;;26.70;39.70;;;;;;5028499;28;19921;-49
2020/12/12 09:44:25;;;;;;;;;;;26.70;39.70;;;;;;5027663;28;19927;-49
2020/12/12 09:46:50;;;;;;;;;;;26.70;39.80;;;;;;5028325;28;19922;-49
2020/12/12 09:49:16;;;;;;;;;;;26.70;39.70;;;;;;5028469;28;20421;-49
2020/12/12 09:51:44;;;;;;;;;;;26.70;39.70;;;;;;5027921;28;19925;-50
2020/12/12 09:54:09;;;;;;;;;;;26.70;39.70;;;;;;5027905;28;20302;-48
2020/12/12 09:56:35;;;;;;;;;;;26.70;39.70;;;;;;5028884;28;19932;-49
2020/12/12 09:59:01;;;;;;;;;;;26.70;39.90;;;;;;5032305;28;19991;-48
2020/12/12 10:01:27;;;;;;;;;;;26.70;39.90;;;;;;5033069;28;19943;-49
2020/12/12 10:03:52;;;;;;;;;;;26.60;39.80;;;;;;5032412;28;20366;-49
2020/12/12 10:06:18;;;;;;;;;;;26.60;40.00;;;;;;5032343;28;19917;-48
2020/12/12 10:08:43;;;;;;;;;;;26.60;40.10;;;;;;5032645;28;20287;-48
2020/12/12 10:11:09;;;;;;;;;;;26.60;40.10;;;;;;5031778;28;20306;-48
2020/12/12 10:13:34;;;;;;;;;;;26.60;40.10;;;;;;5031829;28;19982;-48
2020/12/12 10:16:01;;;;;;;;;;;26.60;40.20;;;;;;5032485;28;20276;-48
2020/12/12 10:18:27;;;;;;;;;;;26.60;40.10;;;;;;5031738;28;19921;-47
2020/12/12 10:20:52;;;;;;;;;;;26.70;40.00;;;;;;5032007;28;19921;-48
2020/12/12 10:23:18;;;;;;;;;;;26.60;40.00;;;;;;5031615;28;19968;-48
2020/12/12 10:25:43;;;;;;;;;;;26.70;39.90;;;;;;5031682;28;19968;-49
2020/12/12 10:28:09;;;;;;;;;;;26.70;39.90;;;;;;5031874;28;19974;-48
2020/12/12 10:30:34;;;;;;;;;;;26.70;39.90;;;;;;5034358;28;19913;-48
2020/12/12 10:33:00;;;;;;;;;;;26.70;39.70;;;;;;5021851;28;19918;-48
2020/12/12 10:35:26;;;;;;;;;;;26.70;39.70;;;;;;5017179;28;19915;-48
2020/12/12 10:37:51;;;;;;;;;;;26.80;39.70;;;;;;5035290;28;19928;-49
2020/12/12 10:40:20;;;;;;;;;;;26.80;39.70;;;;;;5031098;28;19928;-48
2020/12/12 10:42:45;;;;;;;;;;;26.80;39.70;;;;;;5031408;28;19959;-51
2020/12/12 10:45:11;;;;;;;;;;;26.70;34.70;;;;;;5031807;28;19926;-48
2020/12/12 10:47:36;;;;;;;;;;;26.20;31.40;;;;;;5031644;28;19913;-49
2020/12/12 10:50:03;;;;;;;;;;;25.90;34.80;;;;;;5031430;28;19956;-48
2020/12/12 10:52:28;;;;;;;;;;;25.80;35.20;;;;;;5030882;28;20004;-48
2020/12/12 10:54:54;;;;;;;;;;;25.80;35.60;;;;;;5031572;28;20367;-48
2020/12/12 10:57:19;;;;;;;;;;;25.90;36.30;;;;;;5031564;28;19913;-48
2020/12/12 10:59:45;;;;;;;;;;;25.90;36.40;;;;;;5031430;28;20410;-48
2020/12/12 11:02:11;;;;;;;;;;;25.90;36.30;;;;;;5031548;28;19913;-49
2020/12/12 11:04:37;;;;;;;;;;;26.00;36.30;;;;;;5031114;28;19921;-48
2020/12/12 11:07:03;;;;;;;;;;;26.00;36.40;;;;;;5032257;28;19945;-49
2020/12/12 11:09:28;;;;;;;;;;;26.00;36.50;;;;;;5029773;28;19966;-49
2020/12/12 11:11:54;;;;;;;;;;;26.00;36.60;;;;;;5030433;28;19947;-49
2020/12/12 11:14:19;;;;;;;;;;;25.90;36.70;;;;;;5031206;28;19983;-50
2020/12/12 11:16:45;;;;;;;;;;;26.00;37.00;;;;;;5031091;28;19964;-48
2020/12/12 11:19:10;;;;;;;;;;;26.00;37.10;;;;;;5030452;28;19932;-49
2020/12/12 11:21:40;;;;;;;;;;;25.90;37.20;;;;;;5030659;28;19956;-49
2020/12/12 11:24:06;;;;;;;;;;;26.00;37.20;;;;;;5030274;28;20371;-48
2020/12/12 11:26:31;;;;;;;;;;;26.00;37.30;;;;;;5030717;28;19921;-51
2020/12/12 11:28:56;;;;;;;;;;;26.00;37.40;;;;;;5030967;28;20264;-50
2020/12/12 11:31:23;;;;;;;;;;;26.00;37.40;;;;;;5030073;28;19917;-51
2020/12/12 11:33:54;;;;;;;;;;;26.00;37.50;;;;;;5029658;28;19982;-48
2020/12/12 11:39:28;;;;;;;;;;;26.00;37.60;;;;;;5030752;28;19920;-49
2020/12/12 11:45:04;;;;;;;;;;;26.00;37.90;;;;;;5021320;28;19917;-48
2020/12/12 11:47:29;;;;;;;;;;;26.00;37.90;;;;;;5030083;28;19913;-48
2020/12/12 11:49:55;;;;;;;;;;;26.00;38.00;;;;;;5031397;28;19921;-52
2020/12/12 11:52:20;;;;;;;;;;;26.10;38.10;;;;;;5030276;28;19927;-49
2020/12/12 11:54:46;;;;;;;;;;;26.10;38.10;;;;;;5030099;28;20337;-49
2020/12/12 11:57:11;;;;;;;;;;;26.00;38.10;;;;;;5029567;28;19921;-49
2020/12/12 11:59:37;;;;;;;;;;;26.00;38.10;;;;;;5030239;28;20309;-49
2020/12/12 12:02:03;;;;;;;;;;;26.00;38.20;;;;;;5030162;28;19921;-48
2020/12/12 12:04:29;;;;;;;;;;;26.00;38.30;;;;;;5030247;28;19920;-49
2020/12/12 12:06:56;;;;;;;;;;;26.00;38.40;;;;;;5030341;28;20021;-49
2020/12/12 12:09:29;;;;;;;;;;;26.00;38.50;;;;;;5029357;28;19921;-48
2020/12/12 12:11:54;;;;;;;;;;;26.00;38.50;;;;;;5029543;28;19951;-49
2020/12/12 12:14:20;;;;;;;;;;;26.00;38.50;;;;;;5029362;28;20386;-49
2020/12/12 12:16:45;;;;;;;;;;;26.00;39.20;;;;;;5030336;28;19913;-49
2020/12/12 12:19:11;;;;;;;;;;;26.00;38.60;;;;;;5027871;28;19968;-50
2020/12/12 12:21:37;;;;;;;;;;;25.90;38.60;;;;;;5029292;28;19958;-51
2020/12/12 12:24:03;;;;;;;;;;;25.60;33.40;;;;;;5029327;28;19921;-51
2020/12/12 12:26:29;;;;;;;;;;;24.60;30.80;;;;;;5029081;28;19921;-50
2020/12/12 12:28:54;;;;;;;;;;;24.30;33.70;;;;;;5029859;28;19920;-49
2020/12/12 12:31:20;;;;;;;;;;;24.50;34.50;;;;;;5029317;28;20439;-50
2020/12/12 12:33:46;;;;;;;;;;;24.80;36.40;;;;;;5029479;28;20070;-50
2020/12/12 12:36:11;;;;;;;;;;;25.20;38.70;;;;;;5029267;28;20019;-50
2020/12/12 12:38:37;;;;;;;;;;;;;;;;;;5031647;28;20279;-52
2020/12/12 12:41:03;;;;;;;;;;;25.80;41.80;;;;;;5029407;28;19956;-53
2020/12/12 12:43:28;;;;;;;;;;;26.00;42.80;;;;;;5033581;28;20379;-56
2020/12/12 12:45:54;;;;;;;;;;;26.10;43.40;;;;;;5034028;28;19913;-53
2020/12/12 12:48:19;;;;;;;;;;;26.20;43.50;;;;;;5033959;28;20433;-53
2020/12/12 12:50:45;;;;;;;;;;;26.20;43.70;;;;;;5033558;28;19916;-53
2020/12/12 12:53:11;;;;;;;;;;;26.10;43.70;;;;;;5033704;28;19968;-55
2020/12/12 12:55:37;;;;;;;;;;;26.10;43.80;;;;;;5033535;28;19947;-53
2020/12/12 12:58:02;;;;;;;;;;;26.10;43.80;;;;;;5033735;28;20353;-52
2020/12/12 13:00:28;;;;;;;;;;;26.10;44.00;;;;;;5033705;28;19913;-53
2020/12/12 13:02:53;;;;;;;;;;;26.10;44.00;;;;;;5033696;28;20625;-53
2020/12/12 13:05:19;;;;;;;;;;;26.10;44.00;;;;;;5033031;28;19957;-52
2020/12/12 13:07:44;;;;;;;;;;;26.10;44.00;;;;;;5033485;28;19925;-53
2020/12/12 13:10:10;;;;;;;;;;;26.10;44.00;;;;;;5033299;28;20000;-53
2020/12/12 13:12:35;;;;;;;;;;;26.10;44.00;;;;;;5032936;28;19921;-53
2020/12/12 13:15:01;;;;;;;;;;;26.10;43.90;;;;;;5033391;28;19962;-53
2020/12/12 13:17:26;;;;;;;;;;;26.10;43.80;;;;;;5032694;28;19920;-56
2020/12/12 13:20:15;;;;;;;;;;;26.10;43.80;;;;;;5033350;28;20051;-52
2020/12/12 13:22:40;;;;;;;;;;;26.10;43.70;;;;;;5033042;28;20363;-56
2020/12/12 13:25:05;;;;;;;;;;;26.10;43.70;;;;;;5033346;28;19910;-53
2020/12/12 13:27:31;;;;;;;;;;;26.10;43.60;;;;;;5033160;28;20314;-53
2020/12/12 13:32:23;;;;;;;;;;;26.20;43.50;;;;;;5032484;28;19909;-53
2020/12/12 13:34:48;;;;;;;;;;;26.10;43.50;;;;;;5033093;28;19925;-52
2020/12/12 13:37:15;;;;;;;;;;;26.10;43.50;;;;;;5033149;28;20341;-53
2020/12/12 13:39:43;;;;;;;;;;;26.10;43.40;;;;;;5032893;28;20393;-54
2020/12/12 13:42:17;;;;;;;;;;;26.20;43.50;;;;;;5032953;28;19959;-52
2020/12/12 13:44:43;;;;;;;;;;;26.10;43.40;;;;;;5033143;28;19936;-53
2020/12/12 13:47:12;;;;;;;;;;;26.10;43.40;;;;;;5032396;28;19917;-51
2020/12/12 13:49:37;;;;;;;;;;;26.20;43.30;;;;;;5029720;28;20387;-52
2020/12/12 13:52:05;;;;;;;;;;;26.20;43.20;;;;;;5028965;28;19956;-52
2020/12/12 13:54:31;;;;;;;;;;;26.20;43.20;;;;;;5027813;28;19929;-50
2020/12/12 13:56:56;;;;;;;;;;;26.20;43.10;;;;;;5028480;28;19913;-48
2020/12/12 13:59:22;;;;;;;;;;;26.20;42.80;;;;;;5028191;28;19921;-48
2020/12/12 14:01:48;;;;;;;;;;;26.30;42.90;;;;;;5028173;28;19921;-51
2020/12/12 14:04:13;;;;;;;;;;;26.20;43.20;;;;;;5027561;28;19925;-48
2020/12/12 14:06:39;;;;;;;;;;;26.20;43.30;;;;;;5027886;28;20386;-48
2020/12/12 14:24:45;;;;;;;;;;;26.10;43.40;;;;;;5027389;28;19921;-49
2020/12/12 14:29:55;;;;;;;;;;;26.10;43.10;;;;;;5027957;28;19982;-50
2020/12/12 14:32:21;;;;;;;;;;;26.20;43.10;;;;;;5028312;28;20359;-48
2020/12/12 14:34:46;;;;;;;;;;;26.20;43.00;;;;;;5027525;28;19929;-48
2020/12/12 14:37:12;;;;;;;;;;;26.30;42.90;;;;;;5028422;28;19993;-50
2020/12/12 14:39:38;;;;;;;;;;;26.20;42.80;;;;;;5028564;28;19925;-52
2020/12/12 14:42:03;;;;;;;;;;;26.20;42.70;;;;;;5027422;28;19913;-49